Time;durP1;ratioP1;P1;durP2;ratioP2;P2;SDS_P1;SDS_P2;PMS_P1;PMS_P2;Temp;Humidity;BMP_temperature;BMP_pressure;BME280_temperature;BME280_humidity;BME280_pressure;Samples;Min_cycle;Max_cycle;Signal;HPM_P1;HPM_P2
2021/10/16 00:01:00;;;;;;;5.93;3.33;;;9.00;77.40;;;;;;5058570;28;20437;-80
2021/10/16 00:03:27;;;;;;;10.00;3.77;;;9.00;77.50;;;;;;5058533;28;20445;-80
2021/10/16 00:05:55;;;;;;;4.97;3.30;;;9.00;77.90;;;;;;5058439;28;20460;-80
2021/10/16 00:08:22;;;;;;;6.63;3.70;;;9.00;77.70;;;;;;5057859;28;20449;-80
2021/10/16 00:10:48;;;;;;;7.83;3.50;;;9.00;78.20;;;;;;5058007;28;20476;-79
2021/10/16 00:13:15;;;;;;;3.30;2.97;;;8.90;77.90;;;;;;5058135;28;20493;-80
2021/10/16 00:15:42;;;;;;;5.93;4.13;;;8.90;78.20;;;;;;5064391;28;20461;-79
2021/10/16 00:18:08;;;;;;;5.63;4.03;;;8.90;78.10;;;;;;5076255;28;20450;-79
2021/10/16 00:20:35;;;;;;;6.30;4.30;;;8.80;78.00;;;;;;5073905;28;20564;-78
2021/10/16 00:23:04;;;;;;;7.63;3.90;;;8.80;78.00;;;;;;5056365;28;20938;-78
2021/10/16 00:25:30;;;;;;;6.77;3.70;;;8.80;77.80;;;;;;5056059;28;20434;-78
2021/10/16 00:27:57;;;;;;;6.80;3.97;;;8.80;77.70;;;;;;5055809;28;20453;-78
2021/10/16 00:30:24;;;;;;;4.90;3.50;;;8.80;77.70;;;;;;5055611;28;20480;-79
2021/10/16 00:32:50;;;;;;;3.83;3.27;;;8.80;77.70;;;;;;5055606;28;20492;-78
2021/10/16 00:35:17;;;;;;;5.83;4.10;;;8.80;77.80;;;;;;5055710;28;20464;-78
2021/10/16 00:37:44;;;;;;;6.57;4.93;;;8.80;77.80;;;;;;5055901;28;20450;-78
2021/10/16 00:40:13;;;;;;;4.33;3.20;;;8.80;78.30;;;;;;5057716;28;20484;-78
2021/10/16 00:42:47;;;;;;;7.40;3.70;;;8.80;77.90;;;;;;5057026;28;20499;-78
2021/10/16 00:45:14;;;;;;;8.63;4.03;;;8.80;78.20;;;;;;5057119;28;20452;-78
2021/10/16 00:47:41;;;;;;;5.47;3.90;;;8.80;78.10;;;;;;5056233;28;20507;-79
2021/10/16 00:50:10;;;;;;;5.53;4.33;;;8.70;78.00;;;;;;5055754;28;20462;-79
2021/10/16 00:52:39;;;;;;;4.67;3.33;;;8.70;77.30;;;;;;5055362;28;20522;-80
2021/10/16 00:55:07;;;;;;;7.10;3.63;;;8.60;77.10;;;;;;5055609;28;20456;-79
2021/10/16 00:57:35;;;;;;;6.70;2.63;;;8.50;78.10;;;;;;5055726;28;20485;-79
2021/10/16 01:00:02;;;;;;;10.37;3.80;;;8.50;78.30;;;;;;5055412;28;20477;-79
2021/10/16 01:02:29;;;;;;;5.80;3.43;;;8.50;78.10;;;;;;5055757;28;20434;-79
2021/10/16 01:04:56;;;;;;;7.63;3.47;;;8.40;78.00;;;;;;5055257;28;20810;-79
2021/10/16 01:07:23;;;;;;;6.10;3.70;;;8.40;78.30;;;;;;5055266;28;20454;-79
2021/10/16 01:09:50;;;;;;;6.33;3.43;;;8.40;78.20;;;;;;5055513;28;20479;-79
2021/10/16 01:12:18;;;;;;;6.27;3.60;;;8.40;78.20;;;;;;5055630;28;20455;-78
2021/10/16 01:14:55;;;;;;;8.83;3.33;;;8.40;78.00;;;;;;5055803;28;20452;-79
2021/10/16 01:17:23;;;;;;;10.33;4.00;;;8.40;77.80;;;;;;5056663;28;20461;-79
2021/10/16 01:19:55;;;;;;;4.70;3.10;;;8.40;77.80;;;;;;5056220;28;20981;-79
2021/10/16 01:22:24;;;;;;;3.33;2.80;;;8.40;77.80;;;;;;5056864;28;20444;-79
2021/10/16 01:24:52;;;;;;;4.70;3.03;;;8.30;77.90;;;;;;5057299;28;20856;-80
2021/10/16 01:27:19;;;;;;;5.90;3.70;;;8.30;78.00;;;;;;5057475;28;20457;-80
2021/10/16 01:29:47;;;;;;;5.50;3.10;;;8.40;78.10;;;;;;5056945;28;20492;-80
2021/10/16 01:32:14;;;;;;;12.17;3.20;;;8.30;78.00;;;;;;5056202;28;20462;-79
2021/10/16 01:34:41;;;;;;;4.87;3.67;;;8.30;77.70;;;;;;5056851;28;20881;-80
2021/10/16 01:37:08;;;;;;;4.80;3.20;;;8.30;77.90;;;;;;5056608;28;20449;-79
2021/10/16 01:39:36;;;;;;;8.23;3.00;;;8.30;78.10;;;;;;5056214;28;20563;-80
2021/10/16 01:42:03;;;;;;;6.50;3.70;;;8.20;78.20;;;;;;5056621;28;20449;-80
2021/10/16 01:44:30;;;;;;;6.17;3.33;;;8.20;77.90;;;;;;5056345;28;20444;-80
2021/10/16 01:46:57;;;;;;;6.70;3.57;;;8.20;77.80;;;;;;5056443;28;20442;-79
2021/10/16 01:49:24;;;;;;;9.40;3.40;;;8.20;77.80;;;;;;5056629;28;20465;-80
2021/10/16 01:51:54;;;;;;;6.67;3.50;;;8.20;77.40;;;;;;5055836;28;20814;-79
2021/10/16 01:54:20;;;;;;;5.10;3.03;;;8.20;77.50;;;;;;5055446;28;21017;-79
2021/10/16 01:56:48;;;;;;;6.77;3.47;;;8.20;78.00;;;;;;5055011;28;20434;-79
2021/10/16 01:59:18;;;;;;;4.63;2.60;;;8.20;77.80;;;;;;5053907;28;20483;-79
2021/10/16 02:01:45;;;;;;;9.40;3.43;;;8.20;77.80;;;;;;5054665;28;20446;-79
2021/10/16 02:04:12;;;;;;;6.67;3.43;;;8.10;77.80;;;;;;5053797;28;20433;-79
2021/10/16 02:06:39;;;;;;;3.23;2.90;;;8.10;77.70;;;;;;5053606;28;20457;-79
2021/10/16 02:09:06;;;;;;;5.50;2.90;;;8.10;78.00;;;;;;5053218;28;20465;-79
2021/10/16 02:11:33;;;;;;;4.87;3.10;;;8.00;78.10;;;;;;5054299;28;20453;-80
2021/10/16 02:14:03;;;;;;;9.10;2.80;;;7.90;77.90;;;;;;5057637;28;20508;-80
2021/10/16 02:16:31;;;;;;;9.83;3.50;;;7.90;78.00;;;;;;5071381;28;20455;-79
2021/10/16 02:18:58;;;;;;;5.47;2.43;;;7.80;78.30;;;;;;5078429;28;20466;-80
2021/10/16 02:21:25;;;;;;;5.10;3.27;;;7.80;78.50;;;;;;5061927;28;20441;-80
2021/10/16 02:23:52;;;;;;;5.40;3.00;;;7.80;78.40;;;;;;5061855;28;20450;-80
2021/10/16 02:26:19;;;;;;;5.67;3.03;;;7.80;78.70;;;;;;5061735;28;20449;-80
2021/10/16 02:28:46;;;;;;;10.50;4.63;;;7.70;78.60;;;;;;5061731;28;20473;-80
2021/10/16 02:31:14;;;;;;;6.20;2.90;;;7.80;78.60;;;;;;5060024;28;20441;-80
2021/10/16 02:33:41;;;;;;;4.40;2.80;;;7.70;78.40;;;;;;5060337;28;20489;-80
2021/10/16 02:36:08;;;;;;;12.10;2.53;;;7.70;78.20;;;;;;5059689;28;20453;-79
2021/10/16 02:38:34;;;;;;;8.10;3.10;;;7.70;78.00;;;;;;5059475;28;20454;-79
2021/10/16 02:41:01;;;;;;;6.83;3.17;;;7.70;78.30;;;;;;5059290;28;20441;-79
2021/10/16 02:43:28;;;;;;;5.33;2.90;;;7.70;78.50;;;;;;5059063;28;20458;-80
2021/10/16 02:45:55;;;;;;;5.60;2.60;;;7.70;78.30;;;;;;5059544;28;20970;-79
2021/10/16 02:48:23;;;;;;;8.20;2.77;;;7.70;78.10;;;;;;5059110;28;20450;-79
2021/10/16 02:50:49;;;;;;;12.90;3.50;;;7.70;78.20;;;;;;5058618;28;20958;-80
2021/10/16 02:53:16;;;;;;;4.50;2.57;;;7.70;78.20;;;;;;5058830;28;21003;-80
2021/10/16 02:55:43;;;;;;;4.33;3.20;;;7.70;78.00;;;;;;5058994;28;20475;-79
2021/10/16 02:58:09;;;;;;;5.33;2.60;;;7.70;77.80;;;;;;5058829;28;20966;-79
2021/10/16 03:00:36;;;;;;;11.30;3.27;;;7.70;77.90;;;;;;5058094;28;20473;-79
2021/10/16 03:03:03;;;;;;;12.50;3.53;;;7.70;78.20;;;;;;5058408;28;20445;-80
2021/10/16 03:05:31;;;;;;;5.10;3.10;;;7.70;78.10;;;;;;5058789;28;20442;-79
2021/10/16 03:07:57;;;;;;;5.63;2.93;;;7.70;77.90;;;;;;5058347;28;20468;-80
2021/10/16 03:10:24;;;;;;;8.53;3.03;;;7.70;77.80;;;;;;5058539;28;20476;-80
2021/10/16 03:12:51;;;;;;;6.07;3.07;;;7.60;77.60;;;;;;5057464;28;20437;-80
2021/10/16 03:15:18;;;;;;;4.90;2.60;;;7.60;77.70;;;;;;5057769;28;20450;-80
2021/10/16 03:17:46;;;;;;;9.20;3.60;;;7.60;77.70;;;;;;5057735;28;20433;-80
2021/10/16 03:20:13;;;;;;;9.10;3.17;;;7.60;77.90;;;;;;5057786;28;20560;-80
2021/10/16 03:22:41;;;;;;;6.03;3.37;;;7.60;78.00;;;;;;5057037;28;20450;-80
2021/10/16 03:25:08;;;;;;;6.60;3.10;;;7.60;77.90;;;;;;5056969;28;20449;-80
2021/10/16 03:27:35;;;;;;;6.57;2.80;;;7.60;78.30;;;;;;5056746;28;20473;-80
2021/10/16 03:30:02;;;;;;;14.00;3.30;;;7.60;78.60;;;;;;5055980;28;20842;-80
2021/10/16 03:32:29;;;;;;;8.33;3.30;;;7.60;78.40;;;;;;5063543;28;20461;-81
2021/10/16 03:34:55;;;;;;;8.77;3.43;;;7.50;78.20;;;;;;5062047;28;20492;-81
2021/10/16 03:37:22;;;;;;;6.13;2.53;;;7.50;78.50;;;;;;5059000;28;20451;-81
2021/10/16 03:39:50;;;;;;;9.50;2.80;;;7.40;78.40;;;;;;5067566;28;20464;-80
2021/10/16 03:42:17;;;;;;;13.07;3.40;;;7.40;78.10;;;;;;5075733;28;20807;-81
2021/10/16 03:44:44;;;;;;;5.80;2.70;;;7.40;78.20;;;;;;5071138;28;20479;-80
2021/10/16 03:47:10;;;;;;;4.93;2.40;;;7.40;78.30;;;;;;5057376;28;20421;-81
2021/10/16 03:49:37;;;;;;;5.63;2.70;;;7.30;78.30;;;;;;5057467;28;20468;-80
2021/10/16 03:52:04;;;;;;;6.30;3.00;;;7.30;78.50;;;;;;5057752;28;20461;-80
2021/10/16 03:54:31;;;;;;;11.13;4.60;;;7.30;78.60;;;;;;5056656;28;20485;-80
2021/10/16 03:56:59;;;;;;;6.87;3.00;;;7.30;78.80;;;;;;5056584;28;20445;-79
2021/10/16 03:59:26;;;;;;;12.53;3.63;;;7.30;79.20;;;;;;5056216;28;20473;-79
2021/10/16 04:01:53;;;;;;;6.87;3.00;;;7.30;78.90;;;;;;5056545;28;20445;-79
2021/10/16 04:04:19;;;;;;;9.93;3.20;;;7.30;78.90;;;;;;5056523;28;20442;-79
2021/10/16 04:06:46;;;;;;;13.00;5.07;;;7.20;78.60;;;;;;5056360;28;20458;-79
2021/10/16 04:09:13;;;;;;;24.80;3.70;;;7.20;78.70;;;;;;5056488;28;20465;-79
2021/10/16 04:11:39;;;;;;;13.97;3.80;;;7.20;78.90;;;;;;5056631;28;20434;-79
2021/10/16 04:14:08;;;;;;;13.33;3.87;;;7.20;79.20;;;;;;5055964;28;20642;-79
2021/10/16 04:16:34;;;;;;;12.77;2.97;;;7.20;79.20;;;;;;5056152;28;20445;-79
2021/10/16 04:19:01;;;;;;;8.87;4.43;;;7.10;79.00;;;;;;5056208;28;20500;-79
2021/10/16 04:21:28;;;;;;;12.00;3.70;;;7.10;78.80;;;;;;5056207;28;20453;-80
2021/10/16 04:23:54;;;;;;;12.00;3.57;;;7.10;79.60;;;;;;5056079;28;20446;-80
2021/10/16 04:26:21;;;;;;;8.10;2.70;;;7.10;78.90;;;;;;5055581;28;20437;-79
2021/10/16 04:28:48;;;;;;;14.30;3.43;;;7.10;78.50;;;;;;5055887;28;20468;-80
2021/10/16 04:31:16;;;;;;;10.67;3.83;;;7.10;78.80;;;;;;5055774;28;20453;-80
2021/10/16 04:33:43;;;;;;;8.80;3.27;;;7.00;78.60;;;;;;5055222;28;20512;-80
2021/10/16 04:36:09;;;;;;;16.53;3.50;;;7.00;78.50;;;;;;5055629;28;20449;-79
2021/10/16 04:38:36;;;;;;;9.63;2.90;;;7.10;78.50;;;;;;5055874;28;20457;-79
2021/10/16 04:41:04;;;;;;;13.63;3.30;;;7.00;78.50;;;;;;5055812;28;20445;-79
2021/10/16 04:43:30;;;;;;;14.27;3.53;;;7.00;78.50;;;;;;5054982;28;20813;-80
2021/10/16 04:45:57;;;;;;;10.07;3.50;;;7.00;78.50;;;;;;5055120;28;20836;-79
2021/10/16 04:48:25;;;;;;;9.20;3.77;;;7.00;78.30;;;;;;5055541;28;20453;-80
2021/10/16 04:50:53;;;;;;;8.73;2.97;;;7.00;78.40;;;;;;5055422;28;20457;-80
2021/10/16 04:53:20;;;;;;;13.80;3.40;;;7.00;78.50;;;;;;5055244;28;20499;-80
2021/10/16 04:55:49;;;;;;;7.60;3.57;;;7.10;78.70;;;;;;5055825;28;20530;-80
2021/10/16 04:58:16;;;;;;;9.80;3.60;;;7.00;78.80;;;;;;5054828;28;20488;-80
2021/10/16 05:00:43;;;;;;;8.77;3.90;;;7.00;78.90;;;;;;5054956;28;20475;-80
2021/10/16 05:03:10;;;;;;;12.40;4.03;;;7.00;78.80;;;;;;5055154;28;20434;-80
2021/10/16 05:05:38;;;;;;;9.13;2.60;;;7.00;78.90;;;;;;5064719;28;20453;-80
2021/10/16 05:08:06;;;;;;;9.53;3.43;;;7.00;78.80;;;;;;5075837;28;20445;-79
2021/10/16 05:10:33;;;;;;;12.03;3.80;;;7.00;78.40;;;;;;5059624;28;20914;-80
2021/10/16 05:13:00;;;;;;;6.43;3.17;;;6.90;78.50;;;;;;5056873;28;20461;-80
2021/10/16 05:15:27;;;;;;;6.43;3.40;;;6.90;78.70;;;;;;5056502;28;20484;-80
2021/10/16 05:17:54;;;;;;;9.03;2.70;;;6.90;78.80;;;;;;5057078;28;20955;-81
2021/10/16 05:20:21;;;;;;;10.13;2.53;;;6.90;78.70;;;;;;5058613;28;20469;-80
2021/10/16 05:22:49;;;;;;;11.50;2.90;;;6.90;78.70;;;;;;5059337;28;20449;-79
2021/10/16 05:25:16;;;;;;;11.10;3.10;;;6.80;78.50;;;;;;5056775;28;20456;-80
2021/10/16 05:27:43;;;;;;;6.27;2.90;;;6.80;78.80;;;;;;5056441;28;20441;-79
2021/10/16 05:30:11;;;;;;;11.60;3.80;;;6.80;78.70;;;;;;5056735;28;20473;-80
2021/10/16 05:32:38;;;;;;;6.10;2.70;;;6.70;78.70;;;;;;5056907;28;20453;-80
2021/10/16 05:35:05;;;;;;;12.47;3.30;;;6.70;78.90;;;;;;5057224;28;20489;-79
2021/10/16 05:37:32;;;;;;;13.90;3.37;;;6.70;78.70;;;;;;5058432;28;20472;-80
2021/10/16 05:40:00;;;;;;;11.80;3.37;;;6.70;78.60;;;;;;5057146;28;20477;-79
2021/10/16 05:42:27;;;;;;;6.63;2.97;;;6.70;78.60;;;;;;5058214;28;20434;-79
2021/10/16 05:44:54;;;;;;;8.90;2.67;;;6.70;78.70;;;;;;5057474;28;20442;-80
2021/10/16 05:47:21;;;;;;;5.80;3.30;;;6.70;78.70;;;;;;5058569;28;20900;-79
2021/10/16 05:49:48;;;;;;;6.10;2.73;;;6.70;78.90;;;;;;5062096;28;20473;-79
2021/10/16 05:52:14;;;;;;;10.00;2.77;;;6.70;78.70;;;;;;5062171;28;20426;-79
2021/10/16 05:54:41;;;;;;;14.17;3.07;;;6.60;78.70;;;;;;5062440;28;20493;-79
2021/10/16 05:57:09;;;;;;;11.23;3.03;;;6.70;78.80;;;;;;5063116;28;20509;-79
2021/10/16 05:59:36;;;;;;;10.80;2.77;;;6.70;78.60;;;;;;5063181;28;20841;-79
2021/10/16 06:02:03;;;;;;;7.93;3.77;;;6.60;78.90;;;;;;5063130;28;20505;-78
2021/10/16 06:04:30;;;;;;;6.93;2.80;;;6.60;79.30;;;;;;5059128;28;20808;-80
2021/10/16 06:06:56;;;;;;;15.53;3.17;;;6.60;79.20;;;;;;5056389;28;20445;-79
2021/10/16 06:09:23;;;;;;;7.47;3.67;;;6.60;79.50;;;;;;5054598;28;21013;-80
2021/10/16 06:11:50;;;;;;;10.07;3.30;;;6.60;79.30;;;;;;5059778;28;20457;-79
2021/10/16 06:14:18;;;;;;;6.93;3.20;;;6.70;79.50;;;;;;5065332;28;20482;-78
2021/10/16 06:16:45;;;;;;;15.87;3.90;;;6.60;79.40;;;;;;5062957;28;20446;-78
2021/10/16 06:19:11;;;;;;;5.33;3.10;;;6.60;79.30;;;;;;5063252;28;20549;-78
2021/10/16 06:21:38;;;;;;;8.67;3.30;;;6.60;79.30;;;;;;5062244;28;20449;-78
2021/10/16 06:24:05;;;;;;;5.83;2.93;;;6.70;79.70;;;;;;5065220;28;20468;-79
2021/10/16 06:26:32;;;;;;;7.73;3.43;;;6.60;79.60;;;;;;5063879;28;20456;-78
2021/10/16 06:28:58;;;;;;;6.97;3.33;;;6.60;79.60;;;;;;5065412;28;20492;-78
2021/10/16 06:31:27;;;;;;;8.90;3.10;;;6.60;79.60;;;;;;5063525;28;20512;-78
2021/10/16 06:33:54;;;;;;;10.93;3.00;;;6.60;79.50;;;;;;5063756;28;20465;-80
2021/10/16 06:36:21;;;;;;;9.63;2.73;;;6.60;79.70;;;;;;5063479;28;20449;-81
2021/10/16 06:38:47;;;;;;;7.10;3.47;;;6.60;80.40;;;;;;5058475;28;20454;-79
2021/10/16 06:41:14;;;;;;;13.87;3.57;;;6.60;80.60;;;;;;5058427;28;20450;-80
2021/10/16 06:43:41;;;;;;;8.13;4.13;;;6.60;80.60;;;;;;5057311;28;20993;-79
2021/10/16 06:46:07;;;;;;;10.10;3.57;;;6.60;80.40;;;;;;5057152;28;20442;-81
2021/10/16 06:48:35;;;;;;;9.03;3.90;;;6.70;80.80;;;;;;5056114;28;20452;-80
2021/10/16 06:51:02;;;;;;;9.73;3.37;;;6.70;80.90;;;;;;5057391;28;20450;-81
2021/10/16 06:53:29;;;;;;;6.60;3.20;;;6.70;81.00;;;;;;5060138;28;20506;-82
2021/10/16 06:55:56;;;;;;;13.40;3.70;;;6.80;81.20;;;;;;5060874;28;20938;-82
2021/10/16 06:58:23;;;;;;;7.70;3.33;;;6.80;81.20;;;;;;5058244;28;20434;-80
2021/10/16 07:00:50;;;;;;;4.20;3.10;;;6.80;81.10;;;;;;5058398;28;20919;-79
2021/10/16 07:03:16;;;;;;;9.17;3.63;;;6.90;81.40;;;;;;5061115;28;20471;-79
2021/10/16 07:05:45;;;;;;;12.47;4.83;;;6.90;81.40;;;;;;5078174;28;20423;-78
2021/10/16 07:08:11;;;;;;;12.60;5.00;;;7.00;81.90;;;;;;5079160;28;20425;-78
2021/10/16 07:10:39;;;;;;;12.37;5.13;;;7.00;82.20;;;;;;5064383;28;20472;-79
2021/10/16 07:13:06;;;;;;;12.43;5.43;;;7.00;82.30;;;;;;5064453;28;20495;-79
2021/10/16 07:15:33;;;;;;;10.97;5.10;;;7.10;82.60;;;;;;5060593;28;20903;-81
2021/10/16 07:18:00;;;;;;;10.80;5.00;;;7.20;83.00;;;;;;5064176;28;20449;-78
2021/10/16 07:20:26;;;;;;;10.87;5.03;;;7.20;83.20;;;;;;5064102;28;20998;-79
2021/10/16 07:22:55;;;;;;;12.40;6.13;;;7.20;83.70;;;;;;5075289;22;20494;-67
2021/10/16 07:25:22;;;;;;;18.10;5.90;;;7.20;84.00;;;;;;5056284;28;20833;-67
2021/10/16 07:27:51;;;;;;;15.53;7.00;;;7.30;84.20;;;;;;5056279;28;20445;-67
2021/10/16 07:30:18;;;;;;;15.43;7.00;;;7.40;84.80;;;;;;5056339;28;20426;-66
2021/10/16 07:32:46;;;;;;;15.40;9.00;;;7.30;84.90;;;;;;5056184;28;20481;-66
2021/10/16 07:35:13;;;;;;;23.13;8.30;;;7.30;85.50;;;;;;5055990;28;20527;-66
2021/10/16 07:37:40;;;;;;;19.50;8.90;;;7.40;86.40;;;;;;5056103;28;20536;-66
2021/10/16 07:40:10;;;;;;;21.03;8.70;;;7.50;87.00;;;;;;5056201;28;20429;-66
2021/10/16 07:42:36;;;;;;;28.63;10.60;;;7.50;87.30;;;;;;5056102;28;20429;-67
2021/10/16 07:45:04;;;;;;;29.70;8.40;;;7.60;88.50;;;;;;5055627;28;20816;-67
2021/10/16 07:47:31;;;;;;;23.93;8.07;;;7.70;89.30;;;;;;5055839;28;20441;-67
2021/10/16 07:49:57;;;;;;;20.07;8.40;;;7.80;90.00;;;;;;5056011;28;20430;-66
2021/10/16 07:52:24;;;;;;;24.20;9.20;;;7.80;90.10;;;;;;5055858;28;20449;-66
2021/10/16 07:54:51;;;;;;;15.60;7.80;;;8.00;90.40;;;;;;5055643;28;20482;-67
2021/10/16 07:57:20;;;;;;;14.83;7.40;;;8.10;90.30;;;;;;5055664;28;21000;-66
2021/10/16 07:59:46;;;;;;;16.37;7.77;;;8.10;90.40;;;;;;5055575;28;20907;-66
2021/10/16 08:02:13;;;;;;;14.10;7.37;;;8.20;90.60;;;;;;5055788;28;20445;-66
2021/10/16 08:04:40;;;;;;;19.23;8.20;;;8.30;90.70;;;;;;5055269;28;20974;-66
2021/10/16 08:07:06;;;;;;;17.00;7.83;;;8.40;90.60;;;;;;5055852;28;20426;-66
2021/10/16 08:09:33;;;;;;;16.97;8.23;;;8.40;90.60;;;;;;5055531;28;20449;-67
2021/10/16 08:12:00;;;;;;;21.50;7.63;;;8.50;90.50;;;;;;5055482;28;20444;-67
2021/10/16 08:14:28;;;;;;;12.97;7.37;;;8.60;90.50;;;;;;5054853;28;21006;-67
2021/10/16 08:16:55;;;;;;;15.23;7.90;;;8.60;90.40;;;;;;5055315;28;20452;-67
2021/10/16 08:19:21;;;;;;;17.00;7.27;;;8.70;90.50;;;;;;5055342;28;20449;-67
2021/10/16 08:21:48;;;;;;;17.93;8.07;;;8.80;90.50;;;;;;5055233;28;20456;-67
2021/10/16 08:24:15;;;;;;;15.00;8.07;;;8.80;90.60;;;;;;5054820;28;20481;-67
2021/10/16 08:26:42;;;;;;;13.17;8.83;;;8.90;90.70;;;;;;5054886;28;20484;-67
2021/10/16 08:29:08;;;;;;;15.10;9.13;;;9.00;90.80;;;;;;5054874;28;20444;-67
2021/10/16 08:31:36;;;;;;;15.27;7.47;;;9.10;90.70;;;;;;5055088;28;20442;-67
2021/10/16 08:34:03;;;;;;;14.20;8.03;;;9.10;90.50;;;;;;5055567;28;20481;-67
2021/10/16 08:36:30;;;;;;;11.47;8.00;;;9.10;90.50;;;;;;5054942;28;20860;-67
2021/10/16 08:38:57;;;;;;;17.03;7.57;;;9.20;90.30;;;;;;5054964;28;20480;-67
2021/10/16 08:41:24;;;;;;;17.70;8.60;;;9.30;90.20;;;;;;5054859;28;20445;-67
2021/10/16 08:43:50;;;;;;;17.27;8.47;;;9.40;90.20;;;;;;5054759;28;20477;-67
2021/10/16 08:46:18;;;;;;;20.00;8.60;;;9.40;90.40;;;;;;5054710;28;20847;-67
2021/10/16 08:48:46;;;;;;;24.30;9.30;;;9.50;90.80;;;;;;5054447;28;20824;-67
2021/10/16 08:51:12;;;;;;;16.80;11.93;;;9.60;90.70;;;;;;5054720;28;20445;-66
2021/10/16 08:53:40;;;;;;;15.73;9.30;;;9.60;90.70;;;;;;5054660;28;20468;-70
2021/10/16 08:56:07;;;;;;;18.30;9.87;;;9.70;90.80;;;;;;5054617;28;20476;-67
2021/10/16 08:58:34;;;;;;;16.93;9.20;;;9.80;90.70;;;;;;5054732;28;20456;-68
2021/10/16 09:01:03;;;;;;;19.17;8.97;;;9.90;90.50;;;;;;5054241;28;20449;-68
2021/10/16 09:03:32;;;;;;;36.77;13.00;;;10.00;89.30;;;;;;5054012;28;20975;-68
2021/10/16 09:06:12;;;;;;;16.50;10.90;;;10.20;88.90;;;;;;5054959;28;20474;-69
2021/10/16 09:08:42;;;;;;;17.73;9.97;;;10.30;88.60;;;;;;5054439;28;20437;-69
2021/10/16 09:11:23;;;;;;;31.13;12.53;;;10.30;88.40;;;;;;5054937;28;20438;-69
2021/10/16 09:13:53;;;;;;;16.40;10.00;;;10.40;87.90;;;;;;5054270;28;20472;-68
2021/10/16 09:16:36;;;;;;;21.40;10.90;;;10.50;87.20;;;;;;5054535;28;20437;-68
2021/10/16 09:19:12;;;;;;;18.27;9.90;;;10.70;86.60;;;;;;5054282;28;20438;-68
2021/10/16 09:21:43;;;;;;;20.80;11.33;;;10.70;85.70;;;;;;5054189;28;20791;-68
2021/10/16 09:24:16;;;;;;;23.57;12.73;;;10.90;85.20;;;;;;5054064;28;20473;-68
2021/10/16 09:26:45;;;;;;;29.73;12.33;;;10.90;85.30;;;;;;5053563;28;20477;-68
2021/10/16 09:29:15;;;;;;;26.07;11.60;;;11.10;84.80;;;;;;5054056;28;20458;-68
2021/10/16 09:31:44;;;;;;;21.90;12.63;;;11.20;83.90;;;;;;5054022;28;20848;-68
2021/10/16 09:34:12;;;;;;;18.93;11.03;;;11.30;83.30;;;;;;5053862;28;20466;-69
2021/10/16 09:36:42;;;;;;;22.43;10.77;;;11.40;83.20;;;;;;5053909;28;20468;-68
2021/10/16 09:39:15;;;;;;;34.07;15.00;;;11.50;83.00;;;;;;5053683;28;20434;-68
2021/10/16 09:41:44;;;;;;;28.60;14.37;;;11.60;82.90;;;;;;5054742;28;20453;-68
2021/10/16 09:44:23;;;;;;;21.03;11.70;;;11.70;83.70;;;;;;5053715;28;20470;-68
2021/10/16 09:47:05;;;;;;;26.83;12.77;;;11.80;83.10;;;;;;5053566;28;20476;-68
2021/10/16 09:49:35;;;;;;;24.33;11.70;;;11.90;82.90;;;;;;5053500;28;20438;-68
2021/10/16 09:52:06;;;;;;;22.67;12.10;;;12.00;82.70;;;;;;5053480;28;20446;-68
2021/10/16 09:54:35;;;;;;;22.20;11.43;;;12.20;82.70;;;;;;5053526;28;20462;-68
2021/10/16 09:57:07;;;;;;;22.00;12.10;;;12.40;82.40;;;;;;5053339;28;20544;-68
2021/10/16 09:59:37;;;;;;;19.77;9.90;;;12.50;81.80;;;;;;5053335;28;20426;-68
2021/10/16 10:02:05;;;;;;;14.60;9.60;;;12.80;80.70;;;;;;5053442;28;20455;-68
2021/10/16 10:04:36;;;;;;;18.73;10.63;;;13.00;80.00;;;;;;5053384;28;20555;-68
2021/10/16 10:07:06;;;;;;;20.03;9.93;;;13.40;79.50;;;;;;5053151;28;20465;-68
2021/10/16 10:09:34;;;;;;;21.53;10.40;;;13.90;77.80;;;;;;5053456;28;20449;-68
2021/10/16 10:12:03;;;;;;;22.97;10.37;;;14.30;74.70;;;;;;5053189;28;20430;-68
2021/10/16 10:14:31;;;;;;;16.73;9.87;;;14.80;73.00;;;;;;5053798;28;20993;-68
2021/10/16 10:17:01;;;;;;;22.93;10.07;;;15.30;70.60;;;;;;5053343;28;20425;-68
2021/10/16 10:19:31;;;;;;;16.77;8.00;;;15.80;69.00;;;;;;5053398;28;20440;-69
2021/10/16 10:21:58;;;;;;;15.73;8.90;;;16.20;67.00;;;;;;5052984;28;20457;-68
2021/10/16 10:24:39;;;;;;;20.13;9.30;;;16.70;65.10;;;;;;5053200;28;20473;-69
2021/10/16 10:27:08;;;;;;;16.87;8.53;;;17.20;62.90;;;;;;5052948;28;20473;-69
2021/10/16 10:29:38;;;;;;;11.67;8.47;;;17.70;61.20;;;;;;5053600;28;20465;-69
2021/10/16 10:32:08;;;;;;;17.73;8.50;;;18.10;59.00;;;;;;5053450;28;20437;-69
2021/10/16 10:34:39;;;;;;;18.20;9.73;;;18.50;57.80;;;;;;5053097;28;20505;-69
2021/10/16 10:37:12;;;;;;;14.07;8.77;;;18.90;56.70;;;;;;5052913;28;20432;-69
2021/10/16 10:39:52;;;;;;;18.93;7.87;;;19.30;56.00;;;;;;5056982;28;20521;-69
2021/10/16 10:42:41;;;;;;;14.30;8.53;;;19.60;55.00;;;;;;5057147;28;20512;-69
2021/10/16 10:45:24;;;;;;;12.03;8.67;;;20.00;54.40;;;;;;5046236;28;20469;-69
2021/10/16 10:48:03;;;;;;;16.00;9.40;;;20.30;52.60;;;;;;5057013;28;20452;-69
2021/10/16 10:50:45;;;;;;;14.87;9.23;;;20.40;51.20;;;;;;5056712;28;20434;-69
2021/10/16 10:53:25;;;;;;;18.80;8.90;;;20.50;51.40;;;;;;5057311;28;20434;-70
2021/10/16 10:55:57;;;;;;;10.10;7.20;;;20.70;51.40;;;;;;5056622;28;20444;-69
2021/10/16 10:58:58;;;;;;;15.50;9.17;;;21.10;50.70;;;;;;5056978;28;20422;-68
2021/10/16 11:01:54;;;;;;;12.53;8.43;;;21.50;49.80;;;;;;5056583;28;20512;-68
2021/10/16 11:04:54;;;;;;;16.03;9.27;;;21.90;48.90;;;;;;5056315;28;20501;-69
2021/10/16 11:08:04;;;;;;;14.20;10.30;;;22.10;47.80;;;;;;5054678;28;20480;-70
2021/10/16 11:10:31;;;;;;;16.87;11.87;;;22.50;47.00;;;;;;5056680;28;20437;-70
2021/10/16 11:13:10;;;;;;;14.93;12.07;;;22.80;47.10;;;;;;5056655;28;20434;-69
2021/10/16 11:15:37;;;;;;;15.37;12.20;;;23.10;45.80;;;;;;5056526;28;20433;-69
2021/10/16 11:18:09;;;;;;;16.20;11.50;;;23.40;44.60;;;;;;5056725;28;20430;-70
2021/10/16 11:20:36;;;;;;;23.37;11.53;;;23.60;44.60;;;;;;5056370;28;20461;-70
2021/10/16 11:23:04;;;;;;;17.67;10.07;;;23.90;42.80;;;;;;5056336;28;20457;-70
2021/10/16 11:25:32;;;;;;;16.37;11.47;;;24.20;41.30;;;;;;5056282;28;20469;-70
2021/10/16 11:28:06;;;;;;;23.43;14.23;;;24.50;41.00;;;;;;5056676;28;20426;-70
2021/10/16 11:30:34;;;;;;;19.00;13.63;;;24.50;40.70;;;;;;5056444;28;20771;-70
2021/10/16 11:33:03;;;;;;;18.53;13.80;;;24.80;41.60;;;;;;5056251;28;20821;-70
2021/10/16 11:35:30;;;;;;;20.20;12.20;;;25.30;41.10;;;;;;5056429;28;20477;-70
2021/10/16 11:37:58;;;;;;;23.50;18.10;;;25.70;38.50;;;;;;5056127;28;20436;-69
2021/10/16 11:40:27;;;;;;;22.43;17.57;;;25.70;38.00;;;;;;5055791;28;20935;-69
2021/10/16 11:42:55;;;;;;;23.73;19.00;;;25.70;38.90;;;;;;5056269;28;20430;-70
2021/10/16 11:45:25;;;;;;;26.13;21.70;;;26.00;38.00;;;;;;5055839;28;20466;-70
2021/10/16 11:47:54;;;;;;;23.03;15.13;;;26.30;38.00;;;;;;5055967;28;20488;-70
2021/10/16 11:50:23;;;;;;;17.60;11.13;;;26.50;38.20;;;;;;5055394;28;20457;-71
2021/10/16 11:52:52;;;;;;;13.30;8.50;;;26.90;36.00;;;;;;5056559;28;20441;-70
2021/10/16 11:55:22;;;;;;;22.40;15.40;;;27.30;33.60;;;;;;5056085;28;20830;-73
2021/10/16 11:57:49;;;;;;;27.87;17.30;;;27.20;33.30;;;;;;5056098;28;20445;-70
2021/10/16 12:00:28;;;;;;;23.30;15.17;;;27.10;34.60;;;;;;5056518;28;20449;-70
2021/10/16 12:02:57;;;;;;;23.87;15.23;;;27.30;34.40;;;;;;5055476;28;20899;-73
2021/10/16 12:05:25;;;;;;;21.23;15.40;;;27.50;33.60;;;;;;5055609;28;20544;-73
2021/10/16 12:07:53;;;;;;;18.83;13.80;;;27.80;33.20;;;;;;5055245;28;20473;-69
2021/10/16 12:10:25;;;;;;;21.90;14.20;;;27.70;33.40;;;;;;5056084;28;20434;-72
2021/10/16 12:13:07;;;;;;;18.97;10.23;;;27.50;32.50;;;;;;5056667;28;20436;-73
2021/10/16 12:15:39;;;;;;;9.50;4.83;;;27.50;32.40;;;;;;5055470;28;20426;-70
2021/10/16 12:18:16;;;;;;;9.30;4.33;;;27.60;30.70;;;;;;5056282;28;20772;-70
2021/10/16 12:20:44;;;;;;;11.10;4.27;;;27.70;30.40;;;;;;5055759;28;20457;-69
2021/10/16 12:23:11;;;;;;;10.00;4.87;;;27.20;30.70;;;;;;5055113;28;20453;-70
2021/10/16 12:25:49;;;;;;;10.97;4.90;;;26.90;30.70;;;;;;5055238;28;20445;-70
2021/10/16 12:28:17;;;;;;;12.43;5.43;;;26.60;32.20;;;;;;5055249;28;20433;-70
2021/10/16 12:31:05;;;;;;;9.63;5.80;;;26.90;32.30;;;;;;5055186;28;20453;-70
2021/10/16 12:33:33;;;;;;;10.90;5.20;;;27.40;31.50;;;;;;5055017;28;20465;-71
2021/10/16 12:36:02;;;;;;;7.77;4.67;;;27.80;31.00;;;;;;5055026;28;20441;-70
2021/10/16 12:38:45;;;;;;;7.60;4.07;;;28.30;30.30;;;;;;5054696;28;20445;-70
2021/10/16 12:41:36;;;;;;;6.50;3.27;;;28.70;28.30;;;;;;5055448;28;20787;-70
2021/10/16 12:44:21;;;;;;;6.23;3.30;;;29.30;27.80;;;;;;5054975;28;20561;-71
2021/10/16 12:47:02;;;;;;;9.73;3.80;;;29.60;26.30;;;;;;5054451;28;20472;-70
2021/10/16 12:49:31;;;;;;;12.50;4.53;;;29.90;26.30;;;;;;5054759;28;20907;-70
2021/10/16 12:51:59;;;;;;;9.10;4.20;;;30.00;26.10;;;;;;5054779;28;20497;-74
2021/10/16 12:54:34;;;;;;;11.53;5.07;;;30.10;24.90;;;;;;5054873;28;20556;-72